createdAt,value
2022-09-26T00:00:05.666Z,3.60
2022-09-26T00:02:32.095Z,3.30
2022-09-26T00:04:58.461Z,3.50
2022-09-26T00:07:24.762Z,3.80
2022-09-26T00:09:51.061Z,3.33
2022-09-26T00:12:17.360Z,4.13
2022-09-26T00:14:43.645Z,3.22
2022-09-26T00:17:10.053Z,3.25
2022-09-26T00:19:36.385Z,3.50
2022-09-26T00:22:02.700Z,2.88
2022-09-26T00:24:29.604Z,3.05
2022-09-26T00:26:55.891Z,3.53
2022-09-26T00:29:22.185Z,3.10
2022-09-26T00:31:49.084Z,3.42
2022-09-26T00:34:17.814Z,3.30
2022-09-26T00:36:44.221Z,2.95
2022-09-26T00:39:13.114Z,3.17
2022-09-26T00:41:39.825Z,3.08
2022-09-26T00:44:43.765Z,3.28
2022-09-26T00:47:36.942Z,3.13
2022-09-26T00:50:14.391Z,3.08
2022-09-26T00:52:46.868Z,2.90
2022-09-26T00:55:17.724Z,3.22
2022-09-26T00:57:58.258Z,2.90
2022-09-26T01:00:24.735Z,3.05
2022-09-26T01:02:52.365Z,3.20
2022-09-26T01:05:21.612Z,3.33
2022-09-26T01:07:48.764Z,3.42
2022-09-26T01:10:16.021Z,3.13
2022-09-26T01:12:43.423Z,3.05
2022-09-26T01:15:10.851Z,2.90
2022-09-26T01:17:39.992Z,3.20
2022-09-26T01:20:06.258Z,3.30
2022-09-26T01:23:02.353Z,2.90
2022-09-26T01:25:41.871Z,2.78
2022-09-26T01:28:29.359Z,2.97
2022-09-26T01:31:21.990Z,3.00
2022-09-26T01:33:58.305Z,2.75
2022-09-26T01:36:37.953Z,2.63
2022-09-26T01:39:21.553Z,2.85
2022-09-26T01:42:09.441Z,2.92
2022-09-26T01:44:51.984Z,2.80
2022-09-26T01:47:41.100Z,2.72
2022-09-26T01:50:16.667Z,2.70
2022-09-26T01:52:55.528Z,3.00
2022-09-26T01:55:28.837Z,2.95
2022-09-26T01:58:03.447Z,3.00
2022-09-26T02:00:30.333Z,2.90
2022-09-26T02:02:59.363Z,3.20
2022-09-26T02:05:33.241Z,3.28
2022-09-26T02:08:07.205Z,2.90
2022-09-26T02:10:43.649Z,2.90
2022-09-26T02:13:15.564Z,2.97
2022-09-26T02:15:47.374Z,3.17
2022-09-26T02:18:20.385Z,2.90
2022-09-26T02:20:55.663Z,3.10
2022-09-26T02:23:22.031Z,3.22
2022-09-26T02:25:48.685Z,2.65
2022-09-26T02:28:16.018Z,2.80
2022-09-26T02:30:44.425Z,2.78
2022-09-26T02:33:10.926Z,2.80
2022-09-26T02:35:55.203Z,2.97
2022-09-26T02:38:23.597Z,2.83
2022-09-26T02:40:56.283Z,2.83
2022-09-26T02:43:50.028Z,3.25
2022-09-26T02:46:43.869Z,2.72
2022-09-26T02:49:35.862Z,2.85
2022-09-26T02:52:28.764Z,2.83
2022-09-26T02:55:03.357Z,3.03
2022-09-26T02:57:36.286Z,2.50
2022-09-26T03:00:09.263Z,2.70
2022-09-26T03:02:54.058Z,2.83
2022-09-26T03:05:30.642Z,2.95
2022-09-26T03:08:12.137Z,3.20
2022-09-26T03:10:40.292Z,3.55
2022-09-26T03:13:10.986Z,3.72
2022-09-26T03:15:40.598Z,3.50
2022-09-26T03:18:12.823Z,3.85
2022-09-26T03:20:40.526Z,4.13
2022-09-26T03:23:06.917Z,3.67
2022-09-26T03:25:33.431Z,4.07
2022-09-26T03:28:02.134Z,4.45
2022-09-26T03:30:32.079Z,4.65
2022-09-26T03:32:58.383Z,4.20
2022-09-26T03:35:24.723Z,4.78
2022-09-26T03:37:51.032Z,4.47
2022-09-26T03:40:17.452Z,4.65
2022-09-26T03:42:43.786Z,5.70
2022-09-26T03:45:10.830Z,5.55
2022-09-26T03:47:41.791Z,5.03
2022-09-26T03:50:08.952Z,5.82
2022-09-26T03:52:36.365Z,5.63
2022-09-26T03:55:02.719Z,6.18
2022-09-26T03:57:29.032Z,5.95
2022-09-26T03:59:55.373Z,6.28
2022-09-26T04:02:22.555Z,5.60
2022-09-26T04:04:49.031Z,5.95
2022-09-26T04:07:15.593Z,6.57
2022-09-26T04:09:42.223Z,7.20
2022-09-26T04:12:08.596Z,6.75
2022-09-26T04:14:35.550Z,7.53
2022-09-26T04:17:01.846Z,7.40
2022-09-26T04:19:28.287Z,8.10
2022-09-26T04:21:54.602Z,7.60
2022-09-26T04:24:21.247Z,6.90
2022-09-26T04:26:48.406Z,7.78
2022-09-26T04:29:15.053Z,6.97
2022-09-26T04:31:42.047Z,7.22
2022-09-26T04:34:09.594Z,7.32
2022-09-26T04:36:35.891Z,8.00
2022-09-26T04:39:02.493Z,8.55
2022-09-26T04:41:29.682Z,7.70
2022-09-26T04:43:57.917Z,7.78
2022-09-26T04:46:30.647Z,8.70
2022-09-26T04:49:00.760Z,8.20
2022-09-26T04:51:28.818Z,8.93
2022-09-26T04:53:55.908Z,8.32
2022-09-26T04:56:23.510Z,8.32
2022-09-26T04:58:50.251Z,7.88
2022-09-26T05:01:19.216Z,8.18
2022-09-26T05:03:45.598Z,8.27
2022-09-26T05:06:13.762Z,8.20
2022-09-26T05:08:42.999Z,8.23
2022-09-26T05:11:09.961Z,9.23
2022-09-26T05:13:36.980Z,8.73
2022-09-26T05:16:03.679Z,8.38
2022-09-26T05:18:30.066Z,9.10
2022-09-26T05:20:57.369Z,9.02
2022-09-26T05:23:45.248Z,8.77
2022-09-26T05:26:39.800Z,8.80
2022-09-26T05:29:08.928Z,8.85
2022-09-26T05:31:39.354Z,8.82
2022-09-26T05:34:12.220Z,9.23
2022-09-26T05:36:42.692Z,8.43
2022-09-26T05:39:29.369Z,8.90
2022-09-26T05:41:56.868Z,8.82
2022-09-26T05:44:23.377Z,9.23
2022-09-26T05:46:51.386Z,10.25
2022-09-26T05:49:17.770Z,9.35
2022-09-26T05:51:44.105Z,8.57
2022-09-26T05:54:10.494Z,8.90
2022-09-26T05:56:37.346Z,8.73
2022-09-26T05:59:04.871Z,8.68
2022-09-26T06:01:33.192Z,9.25
2022-09-26T06:03:59.863Z,7.93
2022-09-26T06:06:26.347Z,7.40
2022-09-26T06:08:52.658Z,7.50
2022-09-26T06:11:24.822Z,8.23
2022-09-26T06:13:51.157Z,6.88
2022-09-26T06:16:19.578Z,7.32
2022-09-26T06:18:47.500Z,7.28
2022-09-26T06:21:17.090Z,7.65
2022-09-26T06:23:44.231Z,7.05
2022-09-26T06:26:15.663Z,6.50
2022-09-26T06:28:42.184Z,6.70
2022-09-26T06:31:14.672Z,6.97
2022-09-26T06:33:41.332Z,5.95
2022-09-26T06:36:10.625Z,6.78
2022-09-26T06:38:38.223Z,6.78
2022-09-26T06:41:07.157Z,6.50
2022-09-26T06:43:33.772Z,6.50
2022-09-26T06:46:00.092Z,6.60
2022-09-26T06:48:27.052Z,6.57
2022-09-26T06:51:00.017Z,6.10
2022-09-26T06:53:27.173Z,5.68
2022-09-26T06:55:54.193Z,5.55
2022-09-26T06:58:20.873Z,5.38
2022-09-26T07:00:47.368Z,5.28
2022-09-26T07:03:15.867Z,5.22
2022-09-26T07:05:43.659Z,4.93
2022-09-26T07:08:10.058Z,5.03
2022-09-26T07:10:37.719Z,5.05
2022-09-26T07:13:09.350Z,4.73
2022-09-26T07:15:37.066Z,4.20
2022-09-26T07:18:06.178Z,5.17
2022-09-26T07:20:36.873Z,4.47
2022-09-26T07:23:04.684Z,4.20
2022-09-26T07:25:31.829Z,4.30
2022-09-26T07:27:58.802Z,4.28
2022-09-26T07:30:26.008Z,4.35
2022-09-26T07:32:52.298Z,4.07
2022-09-26T07:35:18.730Z,3.65
2022-09-26T07:37:45.029Z,4.07
2022-09-26T07:40:11.995Z,3.10
2022-09-26T07:42:38.766Z,3.03
2022-09-26T07:45:28.778Z,3.47
2022-09-26T07:48:11.389Z,3.33
2022-09-26T07:50:37.961Z,3.63
2022-09-26T07:53:04.290Z,2.85
2022-09-26T07:55:30.594Z,3.08
2022-09-26T07:57:57.827Z,2.55
2022-09-26T08:00:24.551Z,2.80
2022-09-26T08:02:52.613Z,3.00
2022-09-26T08:05:21.944Z,3.40
2022-09-26T08:07:49.136Z,3.25
2022-09-26T08:10:20.092Z,2.70
2022-09-26T08:12:47.059Z,2.75
2022-09-26T08:15:14.022Z,2.65
2022-09-26T08:17:40.811Z,2.40
2022-09-26T08:20:07.841Z,2.63
2022-09-26T08:22:34.167Z,2.28
2022-09-26T08:25:00.519Z,2.35
2022-09-26T08:27:26.813Z,2.30
2022-09-26T08:29:53.663Z,2.40
2022-09-26T08:32:20.530Z,2.42
2022-09-26T08:34:47.528Z,2.60
2022-09-26T08:37:14.301Z,2.95
2022-09-26T08:39:40.588Z,2.38
2022-09-26T08:42:23.732Z,2.35
2022-09-26T08:44:58.038Z,2.38
2022-09-26T08:47:40.087Z,2.08
2022-09-26T08:50:37.620Z,1.75
2022-09-26T08:53:10.321Z,2.08
2022-09-26T08:55:42.948Z,2.03
2022-09-26T08:58:19.403Z,2.20
2022-09-26T09:00:49.302Z,2.35
2022-09-26T09:03:30.883Z,2.28
2022-09-26T09:06:07.225Z,2.17
2022-09-26T09:08:41.570Z,2.38
2022-09-26T09:11:26.173Z,2.35
2022-09-26T09:14:04.718Z,2.10
2022-09-26T09:19:30.128Z,1.65
2022-09-26T09:22:18.435Z,2.45
2022-09-26T09:25:16.970Z,2.33
2022-09-26T09:28:18.258Z,2.17
2022-09-26T09:30:52.232Z,2.30
2022-09-26T09:33:29.322Z,2.30
2022-09-26T09:36:01.714Z,2.33
2022-09-26T09:38:30.912Z,2.08
2022-09-26T09:41:03.535Z,2.35
2022-09-26T09:43:51.697Z,2.45
2022-09-26T09:46:39.489Z,2.28
2022-09-26T09:49:09.169Z,2.30
2022-09-26T09:51:54.010Z,3.63
2022-09-26T09:54:55.526Z,2.50
2022-09-26T09:57:42.689Z,2.60
2022-09-26T10:00:16.755Z,2.30
2022-09-26T10:03:11.242Z,2.10
2022-09-26T10:05:47.065Z,2.08
2022-09-26T10:08:26.977Z,2.40
2022-09-26T10:11:25.988Z,2.65
2022-09-26T10:14:00.048Z,2.17
2022-09-26T10:16:26.728Z,2.75
2022-09-26T10:19:11.219Z,2.88
2022-09-26T10:21:47.211Z,2.47
2022-09-26T10:24:40.999Z,2.38
2022-09-26T10:27:38.395Z,2.60
2022-09-26T10:30:25.654Z,2.63
2022-09-26T10:32:56.750Z,2.45
2022-09-26T10:35:42.769Z,2.70
2022-09-26T10:38:23.088Z,2.28
2022-09-26T10:40:55.776Z,2.13
2022-09-26T10:43:30.530Z,1.80
2022-09-26T10:46:15.045Z,2.00
2022-09-26T10:48:56.743Z,2.08
2022-09-26T10:51:36.041Z,1.90
2022-09-26T10:54:13.032Z,2.03
2022-09-26T10:56:47.690Z,2.17
2022-09-26T10:59:16.342Z,1.80
2022-09-26T11:04:38.016Z,1.92
2022-09-26T11:07:07.703Z,1.73
2022-09-26T11:09:35.386Z,1.60
2022-09-26T11:12:27.832Z,1.67
2022-09-26T11:14:58.473Z,1.35
2022-09-26T11:17:45.159Z,1.70
2022-09-26T11:20:45.250Z,1.88
2022-09-26T11:23:44.733Z,1.60
2022-09-26T11:26:18.903Z,1.40
2022-09-26T11:28:51.878Z,1.75
2022-09-26T11:31:26.273Z,1.42
2022-09-26T11:33:53.995Z,1.40
2022-09-26T11:37:03.896Z,1.40
2022-09-26T11:39:50.495Z,1.50
2022-09-26T11:42:36.462Z,1.40
2022-09-26T11:45:33.674Z,1.50
2022-09-26T11:48:08.553Z,1.60
2022-09-26T11:50:50.119Z,1.70
2022-09-26T11:53:26.497Z,1.25
2022-09-26T11:56:02.164Z,1.80
2022-09-26T11:58:39.950Z,1.60
2022-09-26T12:01:27.446Z,1.60
2022-09-26T12:04:15.820Z,2.20
2022-09-26T12:06:45.493Z,1.45
2022-09-26T12:09:18.494Z,2.05
2022-09-26T12:12:15.140Z,1.50
2022-09-26T12:14:55.665Z,1.30
2022-09-26T12:17:41.736Z,1.70
2022-09-26T12:20:26.310Z,1.63
2022-09-26T12:23:04.827Z,1.65
2022-09-26T12:28:26.937Z,1.60
2022-09-26T12:31:38.976Z,1.40
2022-09-26T12:34:08.383Z,1.27
2022-09-26T12:36:52.444Z,1.45
2022-09-26T12:39:40.579Z,1.40
2022-09-26T12:42:16.303Z,1.20
2022-09-26T12:44:57.533Z,1.50
2022-09-26T12:47:46.613Z,1.45
2022-09-26T12:50:51.538Z,1.40
2022-09-26T12:53:23.933Z,1.58
2022-09-26T12:55:55.028Z,1.40
2022-09-26T12:59:05.022Z,1.30
2022-09-26T13:01:47.498Z,1.33
2022-09-26T13:04:28.772Z,1.27
2022-09-26T13:07:19.741Z,1.80
2022-09-26T13:10:08.951Z,1.20
2022-09-26T13:12:46.446Z,1.35
2022-09-26T13:15:36.542Z,1.45
2022-09-26T13:18:26.311Z,1.63
2022-09-26T13:20:59.798Z,1.30
2022-09-26T13:23:34.853Z,1.48
2022-09-26T13:26:35.492Z,1.42
2022-09-26T13:29:19.139Z,1.00
2022-09-26T13:31:58.671Z,1.27
2022-09-26T13:34:42.240Z,1.25
2022-09-26T13:37:41.403Z,1.30
2022-09-26T13:40:34.519Z,1.80
2022-09-26T13:43:20.441Z,1.33
2022-09-26T13:46:00.359Z,1.38
2022-09-26T13:48:38.890Z,1.60
2022-09-26T13:51:18.329Z,1.63
2022-09-26T13:54:02.878Z,2.25
2022-09-26T13:56:43.921Z,2.22
2022-09-26T13:59:13.346Z,1.60
2022-09-26T14:02:19.341Z,1.27
2022-09-26T14:04:47.978Z,1.80
2022-09-26T14:10:07.363Z,1.58
2022-09-26T14:12:55.345Z,1.42
2022-09-26T14:15:28.259Z,1.80
2022-09-26T14:18:16.250Z,1.85
2022-09-26T14:21:10.589Z,1.48
2022-09-26T14:23:45.095Z,1.83
2022-09-26T14:26:12.970Z,1.63
2022-09-26T14:28:46.043Z,1.55
2022-09-26T14:31:33.557Z,1.52
2022-09-26T14:34:18.993Z,1.60
2022-09-26T14:36:46.855Z,1.73
2022-09-26T14:39:44.430Z,1.67
2022-09-26T14:42:26.182Z,1.67
2022-09-26T14:45:02.230Z,1.88
2022-09-26T14:47:40.226Z,2.00
2022-09-26T14:50:24.254Z,1.67
2022-09-26T14:52:58.396Z,2.33
2022-09-26T14:55:26.868Z,3.10
2022-09-26T14:58:17.258Z,2.30
2022-09-26T15:00:49.167Z,1.98
2022-09-26T15:03:19.239Z,1.65
2022-09-26T15:05:46.674Z,2.70
2022-09-26T15:08:28.597Z,2.03
2022-09-26T15:10:57.345Z,2.90
2022-09-26T15:13:45.066Z,3.05
2022-09-26T15:16:40.559Z,1.88
2022-09-26T15:19:14.656Z,3.15
2022-09-26T15:21:50.741Z,4.15
2022-09-26T15:24:36.489Z,4.93
2022-09-26T15:27:17.504Z,6.80
2022-09-26T15:29:46.483Z,3.08
2022-09-26T15:32:25.292Z,2.20
2022-09-26T15:34:52.829Z,1.88
2022-09-26T15:37:22.895Z,1.90
2022-09-26T15:39:50.029Z,1.90
2022-09-26T15:42:43.910Z,1.65
2022-09-26T15:45:18.425Z,1.95
2022-09-26T15:47:44.733Z,2.05
2022-09-26T15:50:28.003Z,1.90
2022-09-26T15:53:07.926Z,1.73
2022-09-26T15:56:03.657Z,1.65
2022-09-26T15:58:34.894Z,2.40
2022-09-26T16:01:01.959Z,5.00
2022-09-26T16:03:37.419Z,3.25
2022-09-26T16:06:18.706Z,2.97
2022-09-26T16:08:52.768Z,3.88
2022-09-26T16:11:19.432Z,28.23
2022-09-26T16:13:49.865Z,5.32
2022-09-26T16:16:18.802Z,3.45
2022-09-26T16:18:52.335Z,3.03
2022-09-26T16:21:25.596Z,2.00
2022-09-26T16:23:54.865Z,1.80
2022-09-26T16:26:37.768Z,1.63
2022-09-26T16:29:05.023Z,3.40
2022-09-26T16:31:36.417Z,2.30
2022-09-26T16:34:04.249Z,1.85
2022-09-26T16:36:34.850Z,2.87
2022-09-26T16:39:05.827Z,2.65
2022-09-26T16:44:37.705Z,4.95
2022-09-26T16:47:25.951Z,2.78
2022-09-26T16:49:52.324Z,2.47
2022-09-26T16:52:26.801Z,2.70
2022-09-26T16:54:54.909Z,3.13
2022-09-26T16:57:24.779Z,2.70
2022-09-26T16:59:52.798Z,2.08
2022-09-26T17:02:20.747Z,2.38
2022-09-26T17:04:48.388Z,2.25
2022-09-26T17:07:15.804Z,2.92
2022-09-26T17:09:43.905Z,2.90
2022-09-26T17:12:21.282Z,6.65
2022-09-26T17:14:55.176Z,3.72
2022-09-26T17:17:25.753Z,4.88
2022-09-26T17:19:59.202Z,3.35
2022-09-26T17:22:26.505Z,2.03
2022-09-26T17:24:53.025Z,2.80
2022-09-26T17:27:23.091Z,2.22
2022-09-26T17:29:51.956Z,2.50
2022-09-26T17:32:29.882Z,2.67
2022-09-26T17:34:59.778Z,2.90
2022-09-26T17:37:27.158Z,2.70
2022-09-26T17:39:55.010Z,2.13
2022-09-26T17:42:22.332Z,1.80
2022-09-26T17:44:49.005Z,1.85
2022-09-26T17:47:16.402Z,1.98
2022-09-26T17:49:48.105Z,2.30
2022-09-26T17:52:31.044Z,2.00
2022-09-26T17:55:01.407Z,1.92
2022-09-26T17:57:30.059Z,2.65
2022-09-26T17:59:57.553Z,2.80
2022-09-26T18:02:33.926Z,2.20
2022-09-26T18:05:03.966Z,3.00
2022-09-26T18:07:38.921Z,2.80
2022-09-26T18:10:11.473Z,3.03
2022-09-26T18:12:38.307Z,6.07
2022-09-26T18:15:05.198Z,3.08
2022-09-26T18:17:31.620Z,3.10
2022-09-26T18:19:58.000Z,2.60
2022-09-26T18:22:30.987Z,2.30
2022-09-26T18:25:04.584Z,2.50
2022-09-26T18:27:33.223Z,3.20
2022-09-26T18:32:36.605Z,2.75
2022-09-26T18:35:03.582Z,2.20
2022-09-26T18:37:29.912Z,2.80
2022-09-26T18:40:00.140Z,4.30
2022-09-26T18:42:29.412Z,3.08
2022-09-26T18:45:03.414Z,4.90
2022-09-26T18:47:37.532Z,5.05
2022-09-26T18:50:05.500Z,4.05
2022-09-26T18:52:31.899Z,3.38
2022-09-26T18:55:33.584Z,2.20
2022-09-26T18:58:18.606Z,2.20
2022-09-26T19:00:45.820Z,2.15
2022-09-26T19:03:12.172Z,2.00
2022-09-26T19:05:38.709Z,2.55
2022-09-26T19:08:06.060Z,2.20
2022-09-26T19:10:32.389Z,2.35
2022-09-26T19:12:59.807Z,2.80
2022-09-26T19:15:27.650Z,2.38
2022-09-26T19:17:54.056Z,2.63
2022-09-26T19:20:20.366Z,3.78
2022-09-26T19:22:46.739Z,3.60
2022-09-26T19:25:13.214Z,3.25
2022-09-26T19:27:48.606Z,3.50
2022-09-26T19:30:21.154Z,3.25
2022-09-26T19:32:50.119Z,3.42
2022-09-26T19:35:33.680Z,2.65
2022-09-26T19:38:01.867Z,2.30
2022-09-26T19:40:28.598Z,2.38
2022-09-26T19:42:57.042Z,2.05
2022-09-26T19:45:24.542Z,1.80
2022-09-26T19:47:54.364Z,2.13
2022-09-26T19:50:23.153Z,1.92
2022-09-26T19:52:51.846Z,2.30
2022-09-26T19:55:24.169Z,4.18
2022-09-26T19:57:52.184Z,3.20
2022-09-26T20:00:19.479Z,3.55
2022-09-26T20:02:47.180Z,4.30
2022-09-26T20:05:20.212Z,3.70
2022-09-26T20:07:47.632Z,2.60
2022-09-26T20:10:16.867Z,2.47
2022-09-26T20:12:43.839Z,2.03
2022-09-26T20:15:13.805Z,1.70
2022-09-26T20:17:43.045Z,1.42
2022-09-26T20:20:22.981Z,1.50
2022-09-26T20:22:51.396Z,1.63
2022-09-26T20:25:26.809Z,1.55
2022-09-26T20:27:54.173Z,1.83
2022-09-26T20:30:39.816Z,2.00
2022-09-26T20:33:06.623Z,4.55
2022-09-26T20:35:37.335Z,3.80
2022-09-26T20:38:07.330Z,2.75
2022-09-26T20:40:34.711Z,3.20
2022-09-26T20:43:05.490Z,2.40
2022-09-26T20:45:38.270Z,2.50
2022-09-26T20:48:08.616Z,1.92
2022-09-26T20:50:38.416Z,1.80
2022-09-26T20:53:20.078Z,1.83
2022-09-26T20:55:47.111Z,2.58
2022-09-26T20:58:13.953Z,3.67
2022-09-26T21:00:42.006Z,4.53
2022-09-26T21:03:11.942Z,5.28
2022-09-26T21:05:38.630Z,5.93
2022-09-26T21:08:25.074Z,6.63
2022-09-26T21:10:51.380Z,7.10
2022-09-26T21:13:17.687Z,4.32
2022-09-26T21:15:44.256Z,3.03
2022-09-26T21:18:24.231Z,5.38
2022-09-26T21:20:52.179Z,3.78
2022-09-26T21:23:19.959Z,2.58
2022-09-26T21:25:49.594Z,2.60
2022-09-26T21:28:22.300Z,3.50
2022-09-26T21:30:49.512Z,2.40
2022-09-26T21:33:15.906Z,3.55
2022-09-26T21:35:42.467Z,3.83
2022-09-26T21:38:09.059Z,3.65
2022-09-26T21:40:38.775Z,5.38
2022-09-26T21:43:27.092Z,6.45
2022-09-26T21:45:53.470Z,5.30
2022-09-26T21:48:19.873Z,5.45
2022-09-26T21:50:57.838Z,4.95
2022-09-26T21:56:06.596Z,5.55
2022-09-26T21:58:37.977Z,6.80
2022-09-26T22:01:04.424Z,7.28
2022-09-26T22:03:30.822Z,7.15
2022-09-26T22:05:57.124Z,8.43
2022-09-26T22:08:23.673Z,7.95
2022-09-26T22:10:53.080Z,8.07
2022-09-26T22:13:19.799Z,7.63
2022-09-26T22:15:46.096Z,6.47
2022-09-26T22:18:12.479Z,6.25
2022-09-26T22:20:38.805Z,5.40
2022-09-26T22:23:05.125Z,5.40
2022-09-26T22:25:31.434Z,7.03
2022-09-26T22:27:57.755Z,5.63
2022-09-26T22:30:24.295Z,5.65
2022-09-26T22:32:50.681Z,5.72
2022-09-26T22:35:17.045Z,5.03
2022-09-26T22:37:43.333Z,5.07
2022-09-26T22:40:09.883Z,5.03
2022-09-26T22:42:36.229Z,5.28
2022-09-26T22:45:02.523Z,6.18
2022-09-26T22:47:28.805Z,5.57
2022-09-26T22:49:55.111Z,5.65
2022-09-26T22:52:21.401Z,6.05
2022-09-26T22:54:48.030Z,5.93
2022-09-26T22:57:14.386Z,5.85
2022-09-26T22:59:40.690Z,6.60
2022-09-26T23:02:07.050Z,6.22
2022-09-26T23:04:48.580Z,6.13
2022-09-26T23:07:17.698Z,6.97
2022-09-26T23:09:44.273Z,6.85
2022-09-26T23:12:11.420Z,6.88
2022-09-26T23:14:38.514Z,8.13
2022-09-26T23:17:04.898Z,7.40
2022-09-26T23:19:32.294Z,8.27
2022-09-26T23:21:58.714Z,8.60
2022-09-26T23:24:25.009Z,8.48
2022-09-26T23:26:51.375Z,8.35
2022-09-26T23:29:17.705Z,9.52
2022-09-26T23:31:44.075Z,10.88
2022-09-26T23:34:12.027Z,10.07
2022-09-26T23:36:38.350Z,10.73
2022-09-26T23:39:04.743Z,11.10
2022-09-26T23:41:31.030Z,12.10
2022-09-26T23:43:57.370Z,10.38
2022-09-26T23:46:23.759Z,9.48
2022-09-26T23:48:50.179Z,9.77
2022-09-26T23:51:16.465Z,9.70
2022-09-26T23:53:42.904Z,8.48
2022-09-26T23:56:11.938Z,8.00
2022-09-26T23:58:38.441Z,7.07
